sensor_id;sensor_type;location;lat;lon;timestamp;P1;durP1;ratioP1;P2;durP2;ratioP2
70416;SDS011;57839;51.332;12.410;2023-03-03T00:00:48;52.40;;;27.38;;
70416;SDS011;57839;51.332;12.410;2023-03-03T00:03:15;49.10;;;25.45;;
70416;SDS011;57839;51.332;12.410;2023-03-03T00:05:43;47.95;;;24.02;;
70416;SDS011;57839;51.332;12.410;2023-03-03T00:08:09;54.53;;;25.92;;
70416;SDS011;57839;51.332;12.410;2023-03-03T00:10:34;46.38;;;23.23;;
70416;SDS011;57839;51.332;12.410;2023-03-03T00:13:00;48.25;;;23.95;;
70416;SDS011;57839;51.332;12.410;2023-03-03T00:15:26;46.88;;;24.02;;
70416;SDS011;57839;51.332;12.410;2023-03-03T00:17:52;45.88;;;23.42;;
70416;SDS011;57839;51.332;12.410;2023-03-03T00:22:47;42.00;;;22.58;;
70416;SDS011;57839;51.332;12.410;2023-03-03T00:28:09;45.88;;;23.92;;
70416;SDS011;57839;51.332;12.410;2023-03-03T00:30:40;47.08;;;23.58;;
70416;SDS011;57839;51.332;12.410;2023-03-03T00:33:23;40.60;;;22.33;;
70416;SDS011;57839;51.332;12.410;2023-03-03T00:35:52;47.17;;;23.45;;
70416;SDS011;57839;51.332;12.410;2023-03-03T00:38:22;39.28;;;21.35;;
70416;SDS011;57839;51.332;12.410;2023-03-03T00:40:48;42.92;;;21.90;;
70416;SDS011;57839;51.332;12.410;2023-03-03T00:45:52;40.13;;;20.80;;
70416;SDS011;57839;51.332;12.410;2023-03-03T00:50:53;38.00;;;19.85;;
70416;SDS011;57839;51.332;12.410;2023-03-03T00:53:24;44.80;;;21.67;;
70416;SDS011;57839;51.332;12.410;2023-03-03T00:55:51;44.83;;;23.05;;
70416;SDS011;57839;51.332;12.410;2023-03-03T00:58:18;48.38;;;20.33;;
70416;SDS011;57839;51.332;12.410;2023-03-03T01:00:46;42.38;;;20.58;;
70416;SDS011;57839;51.332;12.410;2023-03-03T01:03:14;40.22;;;20.88;;
70416;SDS011;57839;51.332;12.410;2023-03-03T01:05:42;42.05;;;20.98;;
70416;SDS011;57839;51.332;12.410;2023-03-03T01:08:07;40.25;;;22.63;;
70416;SDS011;57839;51.332;12.410;2023-03-03T01:10:34;37.30;;;19.70;;
70416;SDS011;57839;51.332;12.410;2023-03-03T01:13:03;36.08;;;18.50;;
70416;SDS011;57839;51.332;12.410;2023-03-03T01:15:29;35.90;;;18.35;;
70416;SDS011;57839;51.332;12.410;2023-03-03T01:17:55;39.15;;;18.27;;
70416;SDS011;57839;51.332;12.410;2023-03-03T01:20:20;37.83;;;19.67;;
70416;SDS011;57839;51.332;12.410;2023-03-03T01:22:46;39.67;;;19.00;;
70416;SDS011;57839;51.332;12.410;2023-03-03T01:25:12;34.22;;;18.52;;
70416;SDS011;57839;51.332;12.410;2023-03-03T01:27:37;32.80;;;18.20;;
70416;SDS011;57839;51.332;12.410;2023-03-03T01:30:04;34.22;;;17.63;;
70416;SDS011;57839;51.332;12.410;2023-03-03T01:32:30;31.23;;;17.80;;
70416;SDS011;57839;51.332;12.410;2023-03-03T01:34:56;36.47;;;19.13;;
70416;SDS011;57839;51.332;12.410;2023-03-03T01:37:21;31.45;;;17.05;;
70416;SDS011;57839;51.332;12.410;2023-03-03T01:39:51;29.98;;;16.83;;
70416;SDS011;57839;51.332;12.410;2023-03-03T01:42:17;31.17;;;17.23;;
70416;SDS011;57839;51.332;12.410;2023-03-03T01:44:43;39.83;;;18.50;;
70416;SDS011;57839;51.332;12.410;2023-03-03T01:47:12;30.60;;;17.27;;
70416;SDS011;57839;51.332;12.410;2023-03-03T01:49:44;32.35;;;17.48;;
70416;SDS011;57839;51.332;12.410;2023-03-03T01:52:30;36.53;;;17.88;;
70416;SDS011;57839;51.332;12.410;2023-03-03T01:55:02;30.38;;;16.48;;
70416;SDS011;57839;51.332;12.410;2023-03-03T01:57:34;31.08;;;17.27;;
70416;SDS011;57839;51.332;12.410;2023-03-03T02:00:03;27.52;;;15.93;;
70416;SDS011;57839;51.332;12.410;2023-03-03T02:02:30;32.20;;;18.05;;
70416;SDS011;57839;51.332;12.410;2023-03-03T02:04:55;27.92;;;16.85;;
70416;SDS011;57839;51.332;12.410;2023-03-03T02:07:22;33.00;;;18.25;;
70416;SDS011;57839;51.332;12.410;2023-03-03T02:10:07;29.88;;;16.60;;
70416;SDS011;57839;51.332;12.410;2023-03-03T02:13:09;29.35;;;15.98;;
70416;SDS011;57839;51.332;12.410;2023-03-03T02:15:28;34.97;;;18.30;;
70416;SDS011;57839;51.332;12.410;2023-03-03T02:18:08;27.40;;;16.25;;
70416;SDS011;57839;51.332;12.410;2023-03-03T02:23:12;29.75;;;17.35;;
70416;SDS011;57839;51.332;12.410;2023-03-03T02:28:26;27.58;;;16.27;;
70416;SDS011;57839;51.332;12.410;2023-03-03T02:30:54;32.55;;;17.55;;
70416;SDS011;57839;51.332;12.410;2023-03-03T02:33:20;30.63;;;16.73;;
70416;SDS011;57839;51.332;12.410;2023-03-03T02:35:46;29.70;;;16.48;;
70416;SDS011;57839;51.332;12.410;2023-03-03T02:43:32;26.45;;;15.82;;
70416;SDS011;57839;51.332;12.410;2023-03-03T02:46:02;27.10;;;15.55;;
70416;SDS011;57839;51.332;12.410;2023-03-03T02:48:28;25.10;;;14.55;;
70416;SDS011;57839;51.332;12.410;2023-03-03T02:50:54;27.75;;;16.40;;
70416;SDS011;57839;51.332;12.410;2023-03-03T02:53:19;25.65;;;15.35;;
70416;SDS011;57839;51.332;12.410;2023-03-03T02:55:45;31.92;;;16.40;;
70416;SDS011;57839;51.332;12.410;2023-03-03T02:58:10;25.17;;;14.30;;
70416;SDS011;57839;51.332;12.410;2023-03-03T03:00:36;24.40;;;13.70;;
70416;SDS011;57839;51.332;12.410;2023-03-03T03:03:02;20.77;;;13.05;;
70416;SDS011;57839;51.332;12.410;2023-03-03T03:05:27;20.75;;;12.65;;
70416;SDS011;57839;51.332;12.410;2023-03-03T03:07:53;17.90;;;12.05;;
70416;SDS011;57839;51.332;12.410;2023-03-03T03:10:18;19.10;;;11.13;;
70416;SDS011;57839;51.332;12.410;2023-03-03T03:12:44;18.45;;;11.10;;
70416;SDS011;57839;51.332;12.410;2023-03-03T03:15:09;17.70;;;10.82;;
70416;SDS011;57839;51.332;12.410;2023-03-03T03:17:36;15.23;;;10.45;;
70416;SDS011;57839;51.332;12.410;2023-03-03T03:20:02;15.13;;;10.00;;
70416;SDS011;57839;51.332;12.410;2023-03-03T03:22:28;20.27;;;12.13;;
70416;SDS011;57839;51.332;12.410;2023-03-03T03:24:53;21.13;;;11.52;;
70416;SDS011;57839;51.332;12.410;2023-03-03T03:27:19;18.65;;;11.30;;
70416;SDS011;57839;51.332;12.410;2023-03-03T03:29:44;17.05;;;10.50;;
70416;SDS011;57839;51.332;12.410;2023-03-03T03:32:10;17.65;;;11.52;;
70416;SDS011;57839;51.332;12.410;2023-03-03T03:34:36;20.98;;;11.77;;
70416;SDS011;57839;51.332;12.410;2023-03-03T03:37:02;18.15;;;11.25;;
70416;SDS011;57839;51.332;12.410;2023-03-03T03:39:28;17.20;;;10.07;;
70416;SDS011;57839;51.332;12.410;2023-03-03T03:41:53;15.65;;;10.05;;
70416;SDS011;57839;51.332;12.410;2023-03-03T03:44:19;16.70;;;9.80;;
70416;SDS011;57839;51.332;12.410;2023-03-03T03:46:44;15.48;;;10.25;;
70416;SDS011;57839;51.332;12.410;2023-03-03T03:49:10;14.82;;;9.88;;
70416;SDS011;57839;51.332;12.410;2023-03-03T03:51:35;17.08;;;10.32;;
70416;SDS011;57839;51.332;12.410;2023-03-03T03:54:05;17.58;;;10.80;;
70416;SDS011;57839;51.332;12.410;2023-03-03T03:56:31;16.98;;;10.65;;
70416;SDS011;57839;51.332;12.410;2023-03-03T03:58:57;50.08;;;29.13;;
70416;SDS011;57839;51.332;12.410;2023-03-03T04:03:56;16.27;;;10.13;;
70416;SDS011;57839;51.332;12.410;2023-03-03T04:06:22;17.10;;;10.80;;
70416;SDS011;57839;51.332;12.410;2023-03-03T04:08:48;16.17;;;9.98;;
70416;SDS011;57839;51.332;12.410;2023-03-03T04:11:14;15.00;;;10.20;;
70416;SDS011;57839;51.332;12.410;2023-03-03T04:13:39;15.57;;;9.48;;
70416;SDS011;57839;51.332;12.410;2023-03-03T04:16:05;14.80;;;9.52;;
70416;SDS011;57839;51.332;12.410;2023-03-03T04:18:31;14.13;;;9.18;;
70416;SDS011;57839;51.332;12.410;2023-03-03T04:20:57;17.98;;;10.82;;
70416;SDS011;57839;51.332;12.410;2023-03-03T04:23:22;38.60;;;22.50;;
70416;SDS011;57839;51.332;12.410;2023-03-03T04:25:48;24.08;;;13.48;;
70416;SDS011;57839;51.332;12.410;2023-03-03T04:28:14;15.05;;;9.18;;
70416;SDS011;57839;51.332;12.410;2023-03-03T04:30:40;14.02;;;9.10;;
70416;SDS011;57839;51.332;12.410;2023-03-03T04:33:06;13.55;;;8.90;;
70416;SDS011;57839;51.332;12.410;2023-03-03T04:35:31;13.30;;;8.45;;
70416;SDS011;57839;51.332;12.410;2023-03-03T04:37:57;14.35;;;8.88;;
70416;SDS011;57839;51.332;12.410;2023-03-03T04:40:22;44.60;;;27.73;;
70416;SDS011;57839;51.332;12.410;2023-03-03T04:42:48;16.30;;;10.95;;
70416;SDS011;57839;51.332;12.410;2023-03-03T04:45:14;16.70;;;9.98;;
70416;SDS011;57839;51.332;12.410;2023-03-03T04:47:39;15.85;;;10.10;;
70416;SDS011;57839;51.332;12.410;2023-03-03T04:50:05;16.17;;;9.75;;
70416;SDS011;57839;51.332;12.410;2023-03-03T04:52:32;13.73;;;9.23;;
70416;SDS011;57839;51.332;12.410;2023-03-03T04:54:57;15.50;;;9.95;;
70416;SDS011;57839;51.332;12.410;2023-03-03T04:57:23;53.13;;;30.45;;
70416;SDS011;57839;51.332;12.410;2023-03-03T04:59:48;23.80;;;15.25;;
70416;SDS011;57839;51.332;12.410;2023-03-03T05:02:14;14.85;;;9.55;;
70416;SDS011;57839;51.332;12.410;2023-03-03T05:04:40;14.27;;;9.15;;
70416;SDS011;57839;51.332;12.410;2023-03-03T05:07:05;15.18;;;9.75;;
70416;SDS011;57839;51.332;12.410;2023-03-03T05:09:31;16.27;;;10.35;;
70416;SDS011;57839;51.332;12.410;2023-03-03T05:11:57;15.80;;;9.82;;
70416;SDS011;57839;51.332;12.410;2023-03-03T05:14:22;12.52;;;8.25;;
70416;SDS011;57839;51.332;12.410;2023-03-03T05:16:48;15.63;;;9.45;;
70416;SDS011;57839;51.332;12.410;2023-03-03T05:19:13;13.88;;;8.95;;
70416;SDS011;57839;51.332;12.410;2023-03-03T05:21:39;14.45;;;9.43;;
70416;SDS011;57839;51.332;12.410;2023-03-03T05:24:08;13.27;;;8.75;;
70416;SDS011;57839;51.332;12.410;2023-03-03T05:26:34;10.30;;;7.68;;
70416;SDS011;57839;51.332;12.410;2023-03-03T05:29:00;12.40;;;8.07;;
70416;SDS011;57839;51.332;12.410;2023-03-03T05:31:25;13.18;;;9.07;;
70416;SDS011;57839;51.332;12.410;2023-03-03T05:33:51;13.43;;;8.90;;
70416;SDS011;57839;51.332;12.410;2023-03-03T05:36:17;12.50;;;8.43;;
70416;SDS011;57839;51.332;12.410;2023-03-03T05:38:43;11.32;;;7.53;;
70416;SDS011;57839;51.332;12.410;2023-03-03T05:41:08;12.98;;;8.55;;
70416;SDS011;57839;51.332;12.410;2023-03-03T05:43:34;13.80;;;8.27;;
70416;SDS011;57839;51.332;12.410;2023-03-03T05:46:00;12.40;;;8.02;;
70416;SDS011;57839;51.332;12.410;2023-03-03T05:48:26;14.68;;;8.98;;
70416;SDS011;57839;51.332;12.410;2023-03-03T05:50:52;15.85;;;9.10;;
70416;SDS011;57839;51.332;12.410;2023-03-03T05:53:18;14.73;;;9.10;;
70416;SDS011;57839;51.332;12.410;2023-03-03T05:55:43;14.68;;;9.43;;
70416;SDS011;57839;51.332;12.410;2023-03-03T05:58:09;13.32;;;8.15;;
70416;SDS011;57839;51.332;12.410;2023-03-03T06:00:34;18.90;;;9.48;;
70416;SDS011;57839;51.332;12.410;2023-03-03T06:03:00;17.58;;;9.88;;
70416;SDS011;57839;51.332;12.410;2023-03-03T06:05:25;17.83;;;10.52;;
70416;SDS011;57839;51.332;12.410;2023-03-03T06:07:51;15.57;;;9.55;;
70416;SDS011;57839;51.332;12.410;2023-03-03T06:10:17;13.32;;;8.52;;
70416;SDS011;57839;51.332;12.410;2023-03-03T06:12:42;12.35;;;8.50;;
70416;SDS011;57839;51.332;12.410;2023-03-03T06:15:08;12.63;;;8.38;;
70416;SDS011;57839;51.332;12.410;2023-03-03T06:17:34;13.02;;;7.85;;
70416;SDS011;57839;51.332;12.410;2023-03-03T06:20:00;13.10;;;8.48;;
70416;SDS011;57839;51.332;12.410;2023-03-03T06:22:26;12.20;;;7.60;;
70416;SDS011;57839;51.332;12.410;2023-03-03T06:24:51;13.35;;;8.80;;
70416;SDS011;57839;51.332;12.410;2023-03-03T06:27:17;14.77;;;9.23;;
70416;SDS011;57839;51.332;12.410;2023-03-03T06:29:43;11.82;;;8.05;;
70416;SDS011;57839;51.332;12.410;2023-03-03T06:32:09;14.05;;;8.88;;
70416;SDS011;57839;51.332;12.410;2023-03-03T06:34:35;13.23;;;8.30;;
70416;SDS011;57839;51.332;12.410;2023-03-03T06:37:00;13.00;;;8.65;;
70416;SDS011;57839;51.332;12.410;2023-03-03T06:39:26;14.13;;;8.70;;
70416;SDS011;57839;51.332;12.410;2023-03-03T06:41:52;12.20;;;8.25;;
70416;SDS011;57839;51.332;12.410;2023-03-03T06:44:18;12.02;;;7.25;;
70416;SDS011;57839;51.332;12.410;2023-03-03T06:46:43;11.23;;;7.97;;
70416;SDS011;57839;51.332;12.410;2023-03-03T06:49:09;11.93;;;6.78;;
70416;SDS011;57839;51.332;12.410;2023-03-03T06:51:35;12.20;;;7.50;;
70416;SDS011;57839;51.332;12.410;2023-03-03T06:54:15;10.98;;;7.72;;
70416;SDS011;57839;51.332;12.410;2023-03-03T06:56:45;15.38;;;8.30;;
70416;SDS011;57839;51.332;12.410;2023-03-03T06:59:12;12.50;;;8.40;;
70416;SDS011;57839;51.332;12.410;2023-03-03T07:01:40;11.52;;;8.73;;
70416;SDS011;57839;51.332;12.410;2023-03-03T07:06:43;12.35;;;7.55;;
70416;SDS011;57839;51.332;12.410;2023-03-03T07:09:22;10.85;;;7.40;;
70416;SDS011;57839;51.332;12.410;2023-03-03T07:11:51;12.20;;;7.90;;
70416;SDS011;57839;51.332;12.410;2023-03-03T07:14:27;12.55;;;8.05;;
70416;SDS011;57839;51.332;12.410;2023-03-03T07:16:58;12.65;;;8.35;;
70416;SDS011;57839;51.332;12.410;2023-03-03T07:19:32;17.00;;;10.07;;
70416;SDS011;57839;51.332;12.410;2023-03-03T07:22:15;13.05;;;8.32;;
70416;SDS011;57839;51.332;12.410;2023-03-03T07:24:46;14.18;;;8.88;;
70416;SDS011;57839;51.332;12.410;2023-03-03T07:29:42;13.98;;;9.27;;
70416;SDS011;57839;51.332;12.410;2023-03-03T07:32:25;15.30;;;9.63;;
70416;SDS011;57839;51.332;12.410;2023-03-03T07:35:24;15.32;;;9.70;;
70416;SDS011;57839;51.332;12.410;2023-03-03T07:37:53;16.00;;;9.82;;
70416;SDS011;57839;51.332;12.410;2023-03-03T07:43:24;15.40;;;9.23;;
70416;SDS011;57839;51.332;12.410;2023-03-03T07:45:46;19.83;;;10.15;;
70416;SDS011;57839;51.332;12.410;2023-03-03T07:50:38;12.77;;;8.38;;
70416;SDS011;57839;51.332;12.410;2023-03-03T07:53:07;15.95;;;9.40;;
70416;SDS011;57839;51.332;12.410;2023-03-03T07:55:39;14.82;;;9.82;;
70416;SDS011;57839;51.332;12.410;2023-03-03T08:03:47;14.48;;;9.52;;
70416;SDS011;57839;51.332;12.410;2023-03-03T08:07:00;14.90;;;9.82;;
70416;SDS011;57839;51.332;12.410;2023-03-03T08:09:01;14.43;;;8.50;;
70416;SDS011;57839;51.332;12.410;2023-03-03T08:12:00;14.82;;;9.02;;
70416;SDS011;57839;51.332;12.410;2023-03-03T08:16:59;13.00;;;8.50;;
70416;SDS011;57839;51.332;12.410;2023-03-03T08:19:25;15.02;;;9.15;;
70416;SDS011;57839;51.332;12.410;2023-03-03T08:21:51;13.88;;;8.85;;
70416;SDS011;57839;51.332;12.410;2023-03-03T08:24:17;15.50;;;9.85;;
70416;SDS011;57839;51.332;12.410;2023-03-03T08:26:43;16.52;;;10.38;;
70416;SDS011;57839;51.332;12.410;2023-03-03T08:29:09;18.20;;;11.55;;
70416;SDS011;57839;51.332;12.410;2023-03-03T08:31:36;18.58;;;10.65;;
70416;SDS011;57839;51.332;12.410;2023-03-03T08:34:01;18.70;;;11.38;;
70416;SDS011;57839;51.332;12.410;2023-03-03T08:36:28;21.27;;;11.80;;
70416;SDS011;57839;51.332;12.410;2023-03-03T08:38:54;22.23;;;12.93;;
70416;SDS011;57839;51.332;12.410;2023-03-03T08:41:19;20.25;;;12.23;;
70416;SDS011;57839;51.332;12.410;2023-03-03T08:43:45;16.10;;;10.13;;
70416;SDS011;57839;51.332;12.410;2023-03-03T08:46:10;21.73;;;12.15;;
70416;SDS011;57839;51.332;12.410;2023-03-03T08:48:36;20.05;;;12.43;;
70416;SDS011;57839;51.332;12.410;2023-03-03T08:51:02;16.98;;;10.50;;
70416;SDS011;57839;51.332;12.410;2023-03-03T08:53:28;19.05;;;11.68;;
70416;SDS011;57839;51.332;12.410;2023-03-03T08:55:54;18.52;;;10.95;;
70416;SDS011;57839;51.332;12.410;2023-03-03T08:58:21;16.25;;;10.02;;
70416;SDS011;57839;51.332;12.410;2023-03-03T09:00:47;15.30;;;9.68;;
70416;SDS011;57839;51.332;12.410;2023-03-03T09:03:12;14.80;;;9.30;;
70416;SDS011;57839;51.332;12.410;2023-03-03T09:05:38;17.70;;;10.80;;
70416;SDS011;57839;51.332;12.410;2023-03-03T09:08:04;18.77;;;10.75;;
70416;SDS011;57839;51.332;12.410;2023-03-03T09:10:30;18.92;;;10.68;;
70416;SDS011;57839;51.332;12.410;2023-03-03T09:13:01;18.83;;;11.15;;
70416;SDS011;57839;51.332;12.410;2023-03-03T09:15:33;19.27;;;11.80;;
70416;SDS011;57839;51.332;12.410;2023-03-03T09:20:47;17.45;;;10.45;;
70416;SDS011;57839;51.332;12.410;2023-03-03T09:26:05;16.33;;;10.75;;
70416;SDS011;57839;51.332;12.410;2023-03-03T09:28:37;16.08;;;9.77;;
70416;SDS011;57839;51.332;12.410;2023-03-03T09:31:03;13.52;;;8.40;;
70416;SDS011;57839;51.332;12.410;2023-03-03T09:33:40;13.30;;;8.90;;
70416;SDS011;57839;51.332;12.410;2023-03-03T09:38:49;17.30;;;10.18;;
70416;SDS011;57839;51.332;12.410;2023-03-03T09:41:23;13.25;;;9.02;;
70416;SDS011;57839;51.332;12.410;2023-03-03T09:47:13;17.60;;;10.75;;
70416;SDS011;57839;51.332;12.410;2023-03-03T09:57:53;16.55;;;11.13;;
70416;SDS011;57839;51.332;12.410;2023-03-03T10:00:30;16.30;;;10.95;;
70416;SDS011;57839;51.332;12.410;2023-03-03T10:06:44;16.42;;;10.50;;
70416;SDS011;57839;51.332;12.410;2023-03-03T10:09:05;19.25;;;11.25;;
70416;SDS011;57839;51.332;12.410;2023-03-03T10:17:29;18.63;;;10.68;;
70416;SDS011;57839;51.332;12.410;2023-03-03T10:22:55;17.65;;;9.80;;
70416;SDS011;57839;51.332;12.410;2023-03-03T10:25:27;16.15;;;9.43;;
70416;SDS011;57839;51.332;12.410;2023-03-03T10:28:17;16.92;;;9.77;;
70416;SDS011;57839;51.332;12.410;2023-03-03T10:46:28;17.27;;;10.55;;
70416;SDS011;57839;51.332;12.410;2023-03-03T10:49:29;17.60;;;10.82;;
70416;SDS011;57839;51.332;12.410;2023-03-03T10:52:24;16.67;;;10.27;;
70416;SDS011;57839;51.332;12.410;2023-03-03T11:23:08;23.33;;;11.90;;
70416;SDS011;57839;51.332;12.410;2023-03-03T11:25:46;21.77;;;11.27;;
70416;SDS011;57839;51.332;12.410;2023-03-03T11:28:40;22.50;;;11.80;;
70416;SDS011;57839;51.332;12.410;2023-03-03T11:31:15;22.38;;;11.18;;
70416;SDS011;57839;51.332;12.410;2023-03-03T11:33:54;25.20;;;12.77;;
70416;SDS011;57839;51.332;12.410;2023-03-03T11:41:35;26.90;;;13.68;;
70416;SDS011;57839;51.332;12.410;2023-03-03T11:44:16;27.40;;;14.00;;
70416;SDS011;57839;51.332;12.410;2023-03-03T11:49:46;29.27;;;14.40;;
70416;SDS011;57839;51.332;12.410;2023-03-03T11:55:30;33.17;;;15.02;;
70416;SDS011;57839;51.332;12.410;2023-03-03T12:06:15;22.65;;;11.32;;
70416;SDS011;57839;51.332;12.410;2023-03-03T12:09:00;23.23;;;12.75;;
70416;SDS011;57839;51.332;12.410;2023-03-03T12:11:53;24.60;;;12.85;;
70416;SDS011;57839;51.332;12.410;2023-03-03T12:14:29;23.42;;;11.52;;
70416;SDS011;57839;51.332;12.410;2023-03-03T12:17:00;22.73;;;11.70;;
70416;SDS011;57839;51.332;12.410;2023-03-03T12:24:57;24.58;;;12.43;;
70416;SDS011;57839;51.332;12.410;2023-03-03T12:33:23;22.83;;;12.25;;
70416;SDS011;57839;51.332;12.410;2023-03-03T12:36:05;25.17;;;12.48;;
70416;SDS011;57839;51.332;12.410;2023-03-03T12:38:49;21.90;;;11.77;;
70416;SDS011;57839;51.332;12.410;2023-03-03T12:41:36;21.85;;;12.02;;
70416;SDS011;57839;51.332;12.410;2023-03-03T12:44:33;20.02;;;10.68;;
70416;SDS011;57839;51.332;12.410;2023-03-03T13:00:53;20.85;;;11.30;;
70416;SDS011;57839;51.332;12.410;2023-03-03T13:06:10;22.77;;;11.13;;
70416;SDS011;57839;51.332;12.410;2023-03-03T13:08:49;23.73;;;12.93;;
70416;SDS011;57839;51.332;12.410;2023-03-03T13:11:30;23.80;;;12.50;;
70416;SDS011;57839;51.332;12.410;2023-03-03T13:19:48;26.17;;;14.55;;
70416;SDS011;57839;51.332;12.410;2023-03-03T13:22:17;28.02;;;14.57;;
70416;SDS011;57839;51.332;12.410;2023-03-03T13:24:50;25.60;;;13.93;;
70416;SDS011;57839;51.332;12.410;2023-03-03T13:27:22;26.25;;;14.18;;
70416;SDS011;57839;51.332;12.410;2023-03-03T13:30:00;27.42;;;15.45;;
70416;SDS011;57839;51.332;12.410;2023-03-03T13:32:33;33.83;;;16.10;;
70416;SDS011;57839;51.332;12.410;2023-03-03T13:37:52;33.90;;;17.63;;
70416;SDS011;57839;51.332;12.410;2023-03-03T13:40:23;29.50;;;15.23;;
70416;SDS011;57839;51.332;12.410;2023-03-03T13:43:04;29.63;;;16.45;;
70416;SDS011;57839;51.332;12.410;2023-03-03T13:53:41;28.55;;;16.35;;
70416;SDS011;57839;51.332;12.410;2023-03-03T13:59:25;28.80;;;15.57;;
70416;SDS011;57839;51.332;12.410;2023-03-03T14:01:59;26.05;;;15.85;;
70416;SDS011;57839;51.332;12.410;2023-03-03T14:07:11;28.13;;;16.35;;
70416;SDS011;57839;51.332;12.410;2023-03-03T14:10:01;30.08;;;16.70;;
70416;SDS011;57839;51.332;12.410;2023-03-03T14:20:33;31.08;;;16.70;;
70416;SDS011;57839;51.332;12.410;2023-03-03T14:28:23;31.38;;;16.92;;
70416;SDS011;57839;51.332;12.410;2023-03-03T14:30:54;31.92;;;16.58;;
70416;SDS011;57839;51.332;12.410;2023-03-03T14:33:25;28.40;;;16.55;;
70416;SDS011;57839;51.332;12.410;2023-03-03T14:38:22;28.92;;;15.32;;
70416;SDS011;57839;51.332;12.410;2023-03-03T14:41:03;28.27;;;15.32;;
70416;SDS011;57839;51.332;12.410;2023-03-03T14:43:42;28.63;;;15.63;;
70416;SDS011;57839;51.332;12.410;2023-03-03T14:46:36;27.42;;;14.88;;
70416;SDS011;57839;51.332;12.410;2023-03-03T14:52:02;30.23;;;16.58;;
70416;SDS011;57839;51.332;12.410;2023-03-03T14:54:33;24.35;;;14.75;;
70416;SDS011;57839;51.332;12.410;2023-03-03T14:57:04;23.75;;;13.77;;
70416;SDS011;57839;51.332;12.410;2023-03-03T14:59:57;25.88;;;14.77;;
70416;SDS011;57839;51.332;12.410;2023-03-03T15:02:30;25.02;;;13.95;;
70416;SDS011;57839;51.332;12.410;2023-03-03T15:07:44;21.60;;;12.02;;
70416;SDS011;57839;51.332;12.410;2023-03-03T15:10:11;25.52;;;13.48;;
70416;SDS011;57839;51.332;12.410;2023-03-03T15:12:39;22.55;;;13.50;;
70416;SDS011;57839;51.332;12.410;2023-03-03T15:36:27;28.67;;;15.73;;
70416;SDS011;57839;51.332;12.410;2023-03-03T15:41:54;23.33;;;13.15;;
70416;SDS011;57839;51.332;12.410;2023-03-03T15:52:42;24.15;;;13.50;;
70416;SDS011;57839;51.332;12.410;2023-03-03T15:57:58;22.20;;;11.65;;
70416;SDS011;57839;51.332;12.410;2023-03-03T16:03:56;21.42;;;11.85;;
70416;SDS011;57839;51.332;12.410;2023-03-03T16:06:40;19.33;;;11.02;;
70416;SDS011;57839;51.332;12.410;2023-03-03T16:23:19;19.60;;;10.88;;
70416;SDS011;57839;51.332;12.410;2023-03-03T16:26:07;21.45;;;11.57;;
70416;SDS011;57839;51.332;12.410;2023-03-03T16:31:42;23.40;;;12.52;;
70416;SDS011;57839;51.332;12.410;2023-03-03T16:34:18;18.90;;;11.25;;
70416;SDS011;57839;51.332;12.410;2023-03-03T17:08:09;21.75;;;12.50;;
70416;SDS011;57839;51.332;12.410;2023-03-03T17:10:47;18.00;;;10.57;;
70416;SDS011;57839;51.332;12.410;2023-03-03T17:16:16;20.75;;;11.73;;
70416;SDS011;57839;51.332;12.410;2023-03-03T17:23:55;17.33;;;10.48;;
70416;SDS011;57839;51.332;12.410;2023-03-03T17:29:26;16.38;;;10.77;;
70416;SDS011;57839;51.332;12.410;2023-03-03T17:45:24;24.07;;;13.63;;
70416;SDS011;57839;51.332;12.410;2023-03-03T17:47:57;22.70;;;12.32;;
70416;SDS011;57839;51.332;12.410;2023-03-03T17:58:39;26.23;;;15.77;;
70416;SDS011;57839;51.332;12.410;2023-03-03T18:06:53;31.60;;;17.15;;
70416;SDS011;57839;51.332;12.410;2023-03-03T18:18:02;30.13;;;18.30;;
70416;SDS011;57839;51.332;12.410;2023-03-03T18:23:30;29.92;;;17.95;;
70416;SDS011;57839;51.332;12.410;2023-03-03T18:29:10;32.17;;;18.95;;
70416;SDS011;57839;51.332;12.410;2023-03-03T18:34:39;55.95;;;33.90;;
70416;SDS011;57839;51.332;12.410;2023-03-03T18:42:39;36.05;;;20.63;;
70416;SDS011;57839;51.332;12.410;2023-03-03T18:50:32;32.28;;;18.83;;
70416;SDS011;57839;51.332;12.410;2023-03-03T18:58:36;32.95;;;19.15;;
70416;SDS011;57839;51.332;12.410;2023-03-03T19:01:50;29.55;;;17.52;;
70416;SDS011;57839;51.332;12.410;2023-03-03T19:09:10;33.58;;;18.20;;
70416;SDS011;57839;51.332;12.410;2023-03-03T19:11:41;29.67;;;17.00;;
70416;SDS011;57839;51.332;12.410;2023-03-03T19:16:52;34.72;;;19.38;;
70416;SDS011;57839;51.332;12.410;2023-03-03T19:19:20;26.08;;;16.15;;
70416;SDS011;57839;51.332;12.410;2023-03-03T19:21:51;29.52;;;15.43;;
70416;SDS011;57839;51.332;12.410;2023-03-03T19:24:42;29.58;;;16.52;;
70416;SDS011;57839;51.332;12.410;2023-03-03T19:30:44;25.95;;;14.65;;
70416;SDS011;57839;51.332;12.410;2023-03-03T19:42:08;20.83;;;13.38;;
70416;SDS011;57839;51.332;12.410;2023-03-03T19:50:17;21.23;;;11.88;;
70416;SDS011;57839;51.332;12.410;2023-03-03T19:58:15;21.42;;;12.02;;
70416;SDS011;57839;51.332;12.410;2023-03-03T20:01:13;16.92;;;11.10;;
70416;SDS011;57839;51.332;12.410;2023-03-03T20:04:28;16.33;;;10.98;;
70416;SDS011;57839;51.332;12.410;2023-03-03T20:07:51;18.25;;;11.73;;
70416;SDS011;57839;51.332;12.410;2023-03-03T20:29:35;16.70;;;9.82;;
70416;SDS011;57839;51.332;12.410;2023-03-03T20:43:26;15.20;;;8.57;;
70416;SDS011;57839;51.332;12.410;2023-03-03T20:57:14;13.40;;;9.10;;
70416;SDS011;57839;51.332;12.410;2023-03-03T20:59:54;14.05;;;9.43;;
70416;SDS011;57839;51.332;12.410;2023-03-03T21:05:07;15.13;;;9.85;;
70416;SDS011;57839;51.332;12.410;2023-03-03T21:07:34;13.73;;;8.95;;
70416;SDS011;57839;51.332;12.410;2023-03-03T21:10:12;12.68;;;8.63;;
70416;SDS011;57839;51.332;12.410;2023-03-03T21:12:44;14.05;;;9.30;;
70416;SDS011;57839;51.332;12.410;2023-03-03T21:15:51;12.32;;;9.00;;
70416;SDS011;57839;51.332;12.410;2023-03-03T21:17:59;15.45;;;9.73;;
70416;SDS011;57839;51.332;12.410;2023-03-03T21:20:44;14.55;;;8.82;;
70416;SDS011;57839;51.332;12.410;2023-03-03T21:23:10;13.07;;;8.90;;
70416;SDS011;57839;51.332;12.410;2023-03-03T21:28:18;11.85;;;9.05;;
70416;SDS011;57839;51.332;12.410;2023-03-03T21:33:43;11.98;;;8.48;;
70416;SDS011;57839;51.332;12.410;2023-03-03T21:38:38;12.63;;;8.98;;
70416;SDS011;57839;51.332;12.410;2023-03-03T21:41:04;12.70;;;9.13;;
70416;SDS011;57839;51.332;12.410;2023-03-03T21:43:32;13.30;;;9.60;;
70416;SDS011;57839;51.332;12.410;2023-03-03T21:45:59;13.20;;;9.25;;
70416;SDS011;57839;51.332;12.410;2023-03-03T21:48:24;15.25;;;9.50;;
70416;SDS011;57839;51.332;12.410;2023-03-03T21:50:50;15.10;;;9.73;;
70416;SDS011;57839;51.332;12.410;2023-03-03T21:53:15;12.95;;;9.05;;
70416;SDS011;57839;51.332;12.410;2023-03-03T21:55:41;15.57;;;10.98;;
70416;SDS011;57839;51.332;12.410;2023-03-03T21:58:12;13.63;;;9.75;;
70416;SDS011;57839;51.332;12.410;2023-03-03T22:00:38;15.00;;;10.05;;
70416;SDS011;57839;51.332;12.410;2023-03-03T22:03:04;12.77;;;9.85;;
70416;SDS011;57839;51.332;12.410;2023-03-03T22:05:29;14.32;;;9.60;;